createdAt,value
2017-04-02T00:00:20.064Z,0
2017-04-02T00:01:00.451Z,0
2017-04-02T00:01:40.902Z,0
2017-04-02T00:02:21.296Z,0
2017-04-02T00:03:01.736Z,0
2017-04-02T00:03:42.109Z,0
2017-04-02T00:04:22.585Z,0
2017-04-02T00:07:09.788Z,0
2017-04-02T00:07:58.766Z,0
2017-04-02T00:08:47.042Z,0
2017-04-02T00:09:36.101Z,0
2017-04-02T00:10:24.384Z,0
2017-04-02T00:11:12.922Z,0
2017-04-02T00:12:01.712Z,0
2017-04-02T00:12:50.183Z,0
2017-04-02T00:13:38.822Z,0
2017-04-02T00:14:27.604Z,0
2017-04-02T00:15:15.835Z,0
2017-04-02T00:16:04.461Z,0
2017-04-02T00:16:53.503Z,0
2017-04-02T00:17:42.173Z,0
2017-04-02T00:18:30.355Z,0
2017-04-02T00:19:18.961Z,0
2017-04-02T00:20:08.194Z,0
2017-04-02T00:20:56.193Z,0
2017-04-02T00:21:45.639Z,0
2017-04-02T00:22:33.810Z,0
2017-04-02T00:23:22.659Z,0
2017-04-02T00:24:10.885Z,0
2017-04-02T00:24:59.372Z,0
2017-04-02T00:25:48.237Z,0
2017-04-02T00:26:36.665Z,0
2017-04-02T00:27:25.632Z,0
2017-04-02T00:28:13.883Z,0
2017-04-02T00:29:02.474Z,0
2017-04-02T00:29:51.268Z,0
2017-04-02T00:30:40.131Z,0
2017-04-02T00:31:28.623Z,0
2017-04-02T00:32:17.256Z,0
2017-04-02T00:33:05.761Z,0
2017-04-02T00:33:54.594Z,0
2017-04-02T00:34:42.931Z,0
2017-04-02T00:35:31.378Z,0
2017-04-02T00:36:20.072Z,0
2017-04-02T00:37:09.141Z,0
2017-04-02T00:37:57.682Z,0
2017-04-02T00:38:47.954Z,0
2017-04-02T00:39:36.985Z,0
2017-04-02T00:40:25.315Z,0
2017-04-02T00:41:14.230Z,0
2017-04-02T00:42:02.761Z,0
2017-04-02T00:42:51.272Z,0
2017-04-02T00:43:39.801Z,0
2017-04-02T00:44:28.607Z,0
2017-04-02T00:45:16.837Z,0
2017-04-02T00:46:05.424Z,0
2017-04-02T00:46:53.937Z,0
2017-04-02T00:47:43.103Z,0
2017-04-02T00:48:31.354Z,0
2017-04-02T00:49:19.984Z,0
2017-04-02T00:50:08.945Z,0
2017-04-02T00:50:57.661Z,0
2017-04-02T00:51:46.271Z,0
2017-04-02T00:52:34.225Z,0
2017-04-02T00:53:23.287Z,0
2017-04-02T00:54:11.857Z,0
2017-04-02T00:55:00.373Z,0
2017-04-02T00:55:48.957Z,0
2017-04-02T00:56:37.697Z,0
2017-04-02T00:57:26.387Z,0
2017-04-02T00:58:15.196Z,0
2017-04-02T00:59:03.571Z,0
2017-04-02T00:59:52.840Z,0
2017-04-02T01:00:40.968Z,0
2017-04-02T01:01:29.395Z,0
2017-04-02T01:02:15.927Z,0
2017-04-02T01:03:04.035Z,0
2017-04-02T01:03:52.773Z,0
2017-04-02T01:04:40.995Z,0
2017-04-02T01:05:21.153Z,0
2017-04-02T01:06:01.550Z,0
2017-04-02T01:06:41.937Z,0
2017-04-02T01:07:22.377Z,0
2017-04-02T01:08:02.760Z,0
2017-04-02T01:08:43.216Z,0
2017-04-02T01:09:23.617Z,0
2017-04-02T01:10:04.031Z,0
2017-04-02T01:10:44.463Z,0
2017-04-02T01:11:24.873Z,0
2017-04-02T01:12:05.224Z,0
2017-04-02T01:12:45.636Z,0
2017-04-02T01:13:26.060Z,0
2017-04-02T01:14:06.435Z,0
2017-04-02T01:14:46.859Z,0
2017-04-02T01:15:27.271Z,0
2017-04-02T01:16:07.644Z,0
2017-04-02T01:16:48.085Z,0
2017-04-02T01:17:28.446Z,0
2017-04-02T01:18:08.887Z,0
2017-04-02T01:18:49.321Z,0
2017-04-02T01:19:29.739Z,0
2017-04-02T01:20:10.213Z,0
2017-04-02T01:20:50.573Z,0
2017-04-02T01:21:30.974Z,0
2017-04-02T01:22:11.431Z,0
2017-04-02T01:22:51.873Z,0
2017-04-02T01:23:32.248Z,0
2017-04-02T01:24:12.663Z,0
2017-04-02T01:24:53.093Z,0
2017-04-02T01:25:33.496Z,0
2017-04-02T01:26:13.869Z,0
2017-04-02T01:26:54.285Z,0
2017-04-02T01:27:34.741Z,0
2017-04-02T01:28:15.119Z,0
2017-04-02T01:28:55.539Z,0
2017-04-02T01:29:35.958Z,0
2017-04-02T01:30:16.349Z,0
2017-04-02T01:30:56.770Z,0
2017-04-02T01:31:37.191Z,0
2017-04-02T01:32:17.571Z,0
2017-04-02T01:32:57.948Z,0
2017-04-02T01:33:38.388Z,0
2017-04-02T01:34:18.804Z,0
2017-04-02T01:34:59.211Z,0
2017-04-02T01:35:39.587Z,0
2017-04-02T01:36:20.026Z,0
2017-04-02T01:37:00.402Z,0
2017-04-02T01:37:40.822Z,0
2017-04-02T01:38:21.272Z,0
2017-04-02T01:39:01.645Z,0
2017-04-02T01:39:42.109Z,0
2017-04-02T01:40:22.902Z,0
2017-04-02T01:41:03.335Z,0
2017-04-02T01:41:43.736Z,0
2017-04-02T01:42:24.143Z,0
2017-04-02T01:43:04.586Z,0
2017-04-02T01:43:44.982Z,0
2017-04-02T01:44:25.408Z,0
2017-04-02T01:45:05.816Z,0
2017-04-02T01:45:46.257Z,0
2017-04-02T01:46:26.636Z,0
2017-04-02T01:47:07.047Z,0
2017-04-02T01:47:47.424Z,0
2017-04-02T01:48:27.832Z,0
2017-04-02T01:49:08.214Z,0
2017-04-02T01:49:48.664Z,0
2017-04-02T01:50:29.064Z,0
2017-04-02T01:51:09.437Z,0
2017-04-02T01:51:49.811Z,0
2017-04-02T01:52:30.203Z,0
2017-04-02T01:53:10.609Z,0
2017-04-02T01:55:37.754Z,0
2017-04-02T01:56:26.616Z,0
2017-04-02T01:57:14.875Z,0
2017-04-02T01:58:03.889Z,0
2017-04-02T01:58:51.954Z,0
2017-04-02T01:59:40.669Z,0
2017-04-02T02:00:29.286Z,0
2017-04-02T02:01:18.054Z,0
2017-04-02T02:02:06.576Z,0
2017-04-02T02:02:54.924Z,0
2017-04-02T02:03:44.139Z,0
2017-04-02T02:04:32.506Z,0
2017-04-02T02:05:21.446Z,0
2017-04-02T02:06:09.645Z,0
2017-04-02T02:06:58.552Z,0
2017-04-02T02:07:47.054Z,0
2017-04-02T02:08:35.960Z,0
2017-04-02T02:09:24.434Z,0
2017-04-02T02:10:12.735Z,0
2017-04-02T02:11:01.281Z,0
2017-04-02T02:11:50.137Z,0
2017-04-02T02:12:39.292Z,0
2017-04-02T02:13:27.247Z,0
2017-04-02T02:14:15.975Z,0
2017-04-02T02:15:05.039Z,0
2017-04-02T02:15:53.239Z,0
2017-04-02T02:16:41.801Z,0
2017-04-02T02:17:30.632Z,0
2017-04-02T02:18:19.433Z,0
2017-04-02T02:19:07.756Z,0
2017-04-02T02:19:56.211Z,0
2017-04-02T02:20:45.456Z,0
2017-04-02T02:21:33.611Z,0
2017-04-02T02:22:22.241Z,0
2017-04-02T02:23:10.962Z,0
2017-04-02T02:23:59.607Z,0
2017-04-02T02:24:48.067Z,0
2017-04-02T02:25:36.508Z,0
2017-04-02T02:26:25.440Z,0
2017-04-02T02:27:13.576Z,0
2017-04-02T02:28:02.104Z,0
2017-04-02T02:28:51.162Z,0
2017-04-02T02:29:39.240Z,0
2017-04-02T02:32:19.371Z,0
2017-04-02T02:33:08.333Z,0
2017-04-02T02:33:56.407Z,0
2017-04-02T02:34:45.171Z,0
2017-04-02T02:35:33.958Z,0
2017-04-02T02:36:21.921Z,0
2017-04-02T02:37:10.606Z,0
2017-04-02T02:37:59.267Z,0
2017-04-02T02:38:47.741Z,0
2017-04-02T02:39:36.477Z,0
2017-04-02T02:40:25.189Z,0
2017-04-02T02:41:13.686Z,0
2017-04-02T02:42:02.718Z,0
2017-04-02T02:42:50.831Z,0
2017-04-02T02:45:18.590Z,0
2017-04-02T02:46:07.590Z,0
2017-04-02T02:46:56.099Z,0
2017-04-02T02:47:44.422Z,0
2017-04-02T02:48:33.202Z,0
2017-04-02T02:49:22.108Z,0
2017-04-02T02:50:10.025Z,0
2017-04-02T02:50:59.014Z,0
2017-04-02T02:51:47.225Z,0
2017-04-02T02:52:36.167Z,0
2017-04-02T02:53:24.139Z,0
2017-04-02T02:54:13.174Z,0
2017-04-02T02:55:01.729Z,0
2017-04-02T02:55:50.536Z,0
2017-04-02T02:56:38.853Z,0
2017-04-02T02:57:27.556Z,0
2017-04-02T02:58:16.129Z,0
2017-04-02T02:59:04.697Z,0
2017-04-02T02:59:53.345Z,0
2017-04-02T03:00:41.987Z,0
2017-04-02T03:01:30.537Z,0
2017-04-02T03:02:18.940Z,0
2017-04-02T03:03:07.569Z,0
2017-04-02T03:03:56.120Z,0
2017-04-02T03:04:42.740Z,0
2017-04-02T03:05:29.892Z,0
2017-04-02T03:06:18.303Z,0
2017-04-02T03:07:07.036Z,0
2017-04-02T03:07:55.369Z,0
2017-04-02T03:08:43.837Z,0
2017-04-02T03:09:23.811Z,0
2017-04-02T03:11:44.790Z,0
2017-04-02T03:12:33.631Z,0
2017-04-02T03:13:21.849Z,0
2017-04-02T03:14:08.954Z,0
2017-04-02T03:14:57.039Z,0
2017-04-02T03:15:45.786Z,0
2017-04-02T03:16:34.335Z,0
2017-04-02T03:17:22.764Z,0
2017-04-02T03:18:11.647Z,0
2017-04-02T03:19:00.171Z,0
2017-04-02T03:19:48.610Z,0
2017-04-02T03:20:36.863Z,0
2017-04-02T03:21:25.797Z,0
2017-04-02T03:22:14.658Z,0
2017-04-02T03:23:03.134Z,0
2017-04-02T03:23:52.187Z,0
2017-04-02T03:24:40.456Z,0
2017-04-02T03:25:29.235Z,0
2017-04-02T03:26:18.085Z,0
2017-04-02T03:27:06.306Z,0
2017-04-02T03:27:54.804Z,0
2017-04-02T03:28:44.073Z,0
2017-04-02T03:29:32.150Z,0
2017-04-02T03:30:20.822Z,0
2017-04-02T03:31:09.455Z,0
2017-04-02T03:31:57.830Z,0
2017-04-02T03:32:46.581Z,0
2017-04-02T03:33:35.485Z,0
2017-04-02T03:34:23.827Z,0
2017-04-02T03:35:12.643Z,0
2017-04-02T03:36:01.165Z,0
2017-04-02T03:36:50.072Z,0
2017-04-02T03:37:38.155Z,0
2017-04-02T03:38:18.110Z,0
2017-04-02T03:38:58.521Z,0
2017-04-02T03:39:38.873Z,0
2017-04-02T03:40:19.343Z,0
2017-04-02T03:40:59.696Z,0
2017-04-02T03:41:40.112Z,0
2017-04-02T03:42:20.546Z,0
2017-04-02T03:43:00.917Z,0
2017-04-02T03:43:41.298Z,0
2017-04-02T03:44:21.700Z,0
2017-04-02T03:45:02.114Z,0
2017-04-02T03:45:42.540Z,0
2017-04-02T03:46:22.894Z,0
2017-04-02T03:47:03.316Z,0
2017-04-02T03:47:43.715Z,0
2017-04-02T03:48:24.100Z,0
2017-04-02T03:49:04.492Z,0
2017-04-02T03:49:44.906Z,0
2017-04-02T03:50:25.325Z,0
2017-04-02T03:51:05.733Z,0
2017-04-02T03:51:46.136Z,0
2017-04-02T03:52:26.569Z,0
2017-04-02T03:53:06.935Z,0
2017-04-02T03:53:47.345Z,0
2017-04-02T03:54:27.794Z,0
2017-04-02T03:55:08.224Z,0
2017-04-02T03:55:48.579Z,0
2017-04-02T03:56:29.016Z,0
2017-04-02T03:57:09.423Z,0
2017-04-02T03:57:49.854Z,0
2017-04-02T03:58:30.288Z,0
2017-04-02T03:59:10.680Z,0
2017-04-02T03:59:51.102Z,0
2017-04-02T04:00:31.537Z,0
2017-04-02T04:01:11.934Z,0
2017-04-02T04:01:52.303Z,0
2017-04-02T04:02:33.658Z,0
2017-04-02T04:03:14.014Z,0
2017-04-02T04:03:55.154Z,0
2017-04-02T04:04:35.555Z,0
2017-04-02T04:05:15.915Z,0
2017-04-02T04:05:56.278Z,0
2017-04-02T04:06:36.719Z,0
2017-04-02T04:07:17.063Z,0
2017-04-02T04:07:57.508Z,0
2017-04-02T04:08:37.943Z,0
2017-04-02T04:09:18.352Z,0
2017-04-02T04:09:58.726Z,0
2017-04-02T04:10:40.073Z,0
2017-04-02T04:11:20.464Z,0
2017-04-02T04:12:00.897Z,0
2017-04-02T04:12:41.338Z,0
2017-04-02T04:13:21.758Z,0
2017-04-02T04:14:02.154Z,0
2017-04-02T04:14:42.588Z,0
2017-04-02T04:15:22.990Z,0
2017-04-02T04:16:03.392Z,0
2017-04-02T04:16:43.790Z,0
2017-04-02T04:17:24.198Z,0
2017-04-02T04:18:04.606Z,0
2017-04-02T04:18:44.998Z,0
2017-04-02T04:19:25.491Z,0
2017-04-02T04:20:05.913Z,0
2017-04-02T04:20:46.271Z,0
2017-04-02T04:21:26.649Z,0
2017-04-02T04:22:07.085Z,0
2017-04-02T04:22:47.512Z,0
2017-04-02T04:23:27.956Z,0
2017-04-02T04:24:08.362Z,0
2017-04-02T04:24:48.792Z,0
2017-04-02T04:25:29.222Z,0
2017-04-02T04:26:09.649Z,0
2017-04-02T04:26:50.026Z,0
2017-04-02T04:27:30.426Z,0
2017-04-02T04:28:10.776Z,0
2017-04-02T04:28:51.220Z,0
2017-04-02T04:29:31.883Z,0
2017-04-02T04:30:12.218Z,0
2017-04-02T04:30:52.663Z,0
2017-04-02T04:31:33.066Z,0
2017-04-02T04:32:13.475Z,0
2017-04-02T04:32:53.828Z,0
2017-04-02T04:33:34.289Z,0
2017-04-02T04:34:14.724Z,0
2017-04-02T04:34:55.156Z,0
2017-04-02T04:35:35.548Z,0
2017-04-02T04:36:17.475Z,0
2017-04-02T04:36:59.684Z,0
2017-04-02T04:37:40.731Z,0
2017-04-02T04:38:21.153Z,0
2017-04-02T04:39:01.566Z,0
2017-04-02T04:39:43.469Z,0
2017-04-02T04:40:25.861Z,0
2017-04-02T04:41:07.991Z,0
2017-04-02T04:41:48.401Z,0
2017-04-02T04:42:29.720Z,0
2017-04-02T04:43:11.581Z,0
2017-04-02T04:43:51.957Z,0
2017-04-02T04:44:32.379Z,0
2017-04-02T04:45:14.070Z,0
2017-04-02T04:45:55.299Z,0
2017-04-02T04:46:37.507Z,0
2017-04-02T04:47:17.902Z,0
2017-04-02T04:47:58.286Z,0
2017-04-02T04:48:38.728Z,0
2017-04-02T04:49:19.110Z,0
2017-04-02T04:49:59.598Z,0
2017-04-02T04:50:40.736Z,0
2017-04-02T04:51:23.517Z,0
2017-04-02T04:52:04.508Z,0
2017-04-02T04:52:44.867Z,0
2017-04-02T04:53:25.321Z,0
2017-04-02T04:54:05.721Z,0
2017-04-02T04:54:46.131Z,0
2017-04-02T04:55:26.548Z,0
2017-04-02T04:56:06.944Z,0
2017-04-02T04:56:47.385Z,0
2017-04-02T04:57:27.845Z,0
2017-04-02T04:58:08.201Z,5
2017-04-02T04:58:48.618Z,5
2017-04-02T04:59:29.070Z,5
2017-04-02T05:00:09.522Z,5
2017-04-02T05:00:49.989Z,5
2017-04-02T05:01:30.339Z,5
2017-04-02T05:02:10.721Z,5
2017-04-02T05:02:51.137Z,10
2017-04-02T05:03:31.506Z,10
2017-04-02T05:04:11.940Z,10
2017-04-02T05:04:52.370Z,10
2017-04-02T05:05:32.745Z,15
2017-04-02T05:06:13.195Z,15
2017-04-02T05:06:53.587Z,15
2017-04-02T05:07:34.058Z,15
2017-04-02T05:08:14.485Z,20
2017-04-02T05:08:54.833Z,20
2017-04-02T05:09:35.267Z,20
2017-04-02T05:10:15.681Z,20
2017-04-02T05:10:56.093Z,20
2017-04-02T05:11:36.482Z,25
2017-04-02T05:12:16.896Z,25
2017-04-02T05:12:57.336Z,25
2017-04-02T05:13:37.700Z,25
2017-04-02T05:14:18.108Z,25
2017-04-02T05:14:58.552Z,30
2017-04-02T05:15:38.940Z,30
2017-04-02T05:16:19.430Z,30
2017-04-02T05:16:59.721Z,35
2017-04-02T05:17:40.160Z,35
2017-04-02T05:18:20.558Z,35
2017-04-02T05:19:01.036Z,40
2017-04-02T05:19:41.469Z,40
2017-04-02T05:20:21.821Z,40
2017-04-02T05:21:02.240Z,45
2017-04-02T05:21:42.619Z,45
2017-04-02T05:22:23.034Z,50
2017-04-02T05:23:03.496Z,50
2017-04-02T05:23:43.942Z,55
2017-04-02T05:24:24.452Z,55
2017-04-02T05:25:04.799Z,60
2017-04-02T05:25:45.225Z,60
2017-04-02T05:26:25.624Z,65
2017-04-02T05:27:06.059Z,65
2017-04-02T05:27:46.418Z,65
2017-04-02T05:28:26.826Z,65
2017-04-02T05:29:07.245Z,65
2017-04-02T05:29:47.612Z,65
2017-04-02T05:30:28.013Z,65
2017-04-02T05:31:08.451Z,70
2017-04-02T05:31:48.879Z,70
2017-04-02T05:32:29.858Z,70
2017-04-02T05:33:10.271Z,70
2017-04-02T05:33:50.659Z,75
2017-04-02T05:34:31.102Z,75
2017-04-02T05:35:11.529Z,80
2017-04-02T05:35:51.947Z,80
2017-04-02T05:36:32.338Z,80
2017-04-02T05:37:12.781Z,85
2017-04-02T05:37:53.127Z,85
2017-04-02T05:38:33.552Z,85
2017-04-02T05:39:13.996Z,85
2017-04-02T05:39:54.375Z,85
2017-04-02T05:40:34.806Z,85
2017-04-02T05:41:15.258Z,85
2017-04-02T05:41:55.686Z,85
2017-04-02T05:42:36.039Z,85
2017-04-02T05:43:16.410Z,85
2017-04-02T05:43:56.861Z,85
2017-04-02T05:44:37.275Z,85
2017-04-02T05:45:17.747Z,85
2017-04-02T05:45:58.122Z,85
2017-04-02T05:46:38.544Z,85
2017-04-02T05:47:18.980Z,85
2017-04-02T05:47:59.356Z,85
2017-04-02T05:48:39.829Z,85
2017-04-02T05:49:20.824Z,90
2017-04-02T05:50:02.519Z,90
2017-04-02T05:50:44.740Z,90
2017-04-02T05:51:25.508Z,90
2017-04-02T05:53:47.188Z,95
2017-04-02T05:56:26.251Z,90
2017-04-02T10:25:34.384Z,795
2017-04-02T10:26:27.058Z,805
2017-04-02T10:27:19.288Z,840
2017-04-02T10:28:08.519Z,875
2017-04-02T10:28:56.837Z,910
2017-04-02T10:29:46.536Z,950
2017-04-02T10:30:35.442Z,985
2017-04-02T10:33:03.653Z,965
2017-04-02T10:33:52.929Z,915
2017-04-02T10:34:42.941Z,890
2017-04-02T10:35:31.571Z,855
2017-04-02T10:36:22.306Z,830
2017-04-02T10:37:12.470Z,860
2017-04-02T10:38:01.568Z,930
2017-04-02T10:38:50.468Z,1010
2017-04-02T10:39:42.438Z,1090
2017-04-02T10:40:33.743Z,1165
2017-04-02T10:41:23.456Z,1215
2017-04-02T10:42:13.913Z,1240
2017-04-02T10:43:04.737Z,1245
2017-04-02T10:43:54.119Z,1230
2017-04-02T10:44:42.851Z,1210
2017-04-02T10:45:31.450Z,1185
2017-04-02T10:46:20.385Z,1165
2017-04-02T10:47:08.552Z,1165
2017-04-02T10:47:57.091Z,1185
2017-04-02T10:48:45.989Z,1230
2017-04-02T10:49:34.924Z,1295
2017-04-02T10:50:23.275Z,1395
2017-04-02T10:51:12.481Z,1510
2017-04-02T10:52:01.277Z,1600
2017-04-02T10:52:53.514Z,1685
2017-04-02T10:53:50.102Z,1685
2017-04-02T10:54:39.450Z,1655
2017-04-02T10:55:28.540Z,1630
2017-04-02T10:56:17.027Z,1525
2017-04-02T10:57:06.890Z,1480
2017-04-02T10:57:56.110Z,1455
2017-04-02T10:58:45.061Z,1380
2017-04-02T10:59:33.724Z,1330
2017-04-02T11:00:22.452Z,1300
2017-04-02T11:01:11.921Z,1285
2017-04-02T11:02:00.529Z,1280
2017-04-02T11:02:49.675Z,1295
2017-04-02T11:03:39.026Z,1330
2017-04-02T11:04:27.421Z,1345
2017-04-02T11:05:16.936Z,1360
2017-04-02T11:06:06.057Z,1375
2017-04-02T11:06:54.976Z,1390
2017-04-02T11:07:44.583Z,1405
2017-04-02T11:08:33.392Z,1410
2017-04-02T11:09:21.983Z,1415
2017-04-02T11:10:11.020Z,1430
2017-04-02T11:11:00.506Z,1440
2017-04-02T11:11:48.924Z,1460
2017-04-02T11:12:37.930Z,1465
2017-04-02T11:13:27.441Z,1465
2017-04-02T11:14:15.683Z,1460
2017-04-02T11:15:04.808Z,1435
2017-04-02T11:15:55.217Z,1405
2017-04-02T11:16:44.193Z,1365
2017-04-02T11:17:33.518Z,1320
2017-04-02T11:18:21.452Z,1280
2017-04-02T11:19:10.694Z,1260
2017-04-02T11:20:00.046Z,1245
2017-04-02T11:20:48.421Z,1235
2017-04-02T11:21:37.633Z,1225
2017-04-02T11:22:27.187Z,1210
2017-04-02T11:23:06.831Z,1205
2017-04-02T11:23:47.351Z,1210
2017-04-02T11:24:27.840Z,1210
2017-04-02T11:25:08.508Z,1215
2017-04-02T11:25:49.572Z,1215
2017-04-02T11:26:34.710Z,1205
2017-04-02T11:27:14.634Z,1185
2017-04-02T11:27:55.599Z,1165
2017-04-02T11:28:36.934Z,1175
2017-04-02T11:29:18.212Z,1190
2017-04-02T11:31:57.219Z,1275
2017-04-02T11:32:45.576Z,1280
2017-04-02T11:33:35.235Z,1275
2017-04-02T11:34:24.782Z,1290
2017-04-02T11:35:14.074Z,1300
2017-04-02T11:36:02.600Z,1320
2017-04-02T11:36:51.546Z,1330
2017-04-02T11:37:41.163Z,1325
2017-04-02T11:38:29.321Z,1320
2017-04-02T11:39:18.878Z,1310
2017-04-02T11:40:08.249Z,1280
2017-04-02T11:40:58.068Z,1215
2017-04-02T11:41:46.819Z,1135
2017-04-02T11:42:36.292Z,1050
2017-04-02T11:43:27.106Z,975
2017-04-02T11:44:15.749Z,925
2017-04-02T11:45:04.136Z,900
2017-04-02T11:45:53.279Z,900
2017-04-02T11:46:41.583Z,900
2017-04-02T11:47:30.900Z,905
2017-04-02T11:48:22.534Z,900
2017-04-02T11:49:11.147Z,885
2017-04-02T11:49:59.417Z,870
2017-04-02T11:50:48.903Z,860
2017-04-02T11:51:37.326Z,865
2017-04-02T11:52:26.252Z,885
2017-04-02T11:53:15.614Z,935
2017-04-02T11:54:05.524Z,1010
2017-04-02T11:54:54.369Z,1100
2017-04-02T11:55:44.454Z,1205
2017-04-02T11:56:33.402Z,1330
2017-04-02T11:57:22.180Z,1480
2017-04-02T11:58:10.467Z,1625
2017-04-02T11:58:59.285Z,1725
2017-04-02T11:59:48.052Z,1805
2017-04-02T12:00:37.883Z,1800
2017-04-02T12:01:27.031Z,1805
2017-04-02T12:02:16.736Z,1790
2017-04-02T12:03:05.409Z,1770
2017-04-02T12:03:55.594Z,1760
2017-04-02T12:04:43.638Z,1735
2017-04-02T12:05:32.354Z,1970
2017-04-02T12:06:22.387Z,1685
2017-04-02T12:07:11.304Z,1655
2017-04-02T12:08:01.457Z,1700
2017-04-02T12:08:49.127Z,1780
2017-04-02T12:09:38.084Z,1815
2017-04-02T12:10:27.174Z,1825
2017-04-02T12:11:16.471Z,1845
2017-04-02T12:12:06.916Z,1860
2017-04-02T12:12:55.979Z,1910
2017-04-02T12:13:44.638Z,2145
2017-04-02T12:16:06.541Z,1775
2017-04-02T12:18:27.741Z,1985
2017-04-02T12:19:16.212Z,2160
2017-04-02T12:20:05.325Z,2040
2017-04-02T12:20:53.808Z,1925
2017-04-02T12:21:43.145Z,1850
2017-04-02T12:22:37.201Z,1710
2017-04-02T12:23:27.000Z,1625
2017-04-02T12:24:15.948Z,1550
2017-04-02T12:25:04.006Z,1495
2017-04-02T12:25:53.066Z,1450
2017-04-02T12:26:41.319Z,1425
2017-04-02T12:27:32.079Z,1420
2017-04-02T12:28:20.682Z,1435
2017-04-02T12:29:09.201Z,1465
2017-04-02T12:29:58.004Z,1495
2017-04-02T12:30:47.706Z,1540
2017-04-02T12:31:37.298Z,1560
2017-04-02T12:32:26.458Z,1560
2017-04-02T12:33:16.271Z,1555
2017-04-02T12:34:05.433Z,1545
2017-04-02T12:34:55.219Z,1550
2017-04-02T12:35:44.776Z,1615
2017-04-02T12:38:13.439Z,1610
2017-04-02T12:39:04.390Z,1585
2017-04-02T12:39:53.221Z,1575
2017-04-02T12:40:41.696Z,1570
2017-04-02T12:41:30.303Z,1590
2017-04-02T12:42:20.181Z,1590
2017-04-02T12:43:08.924Z,1570
2017-04-02T12:43:58.560Z,1585
2017-04-02T12:44:46.308Z,1595
2017-04-02T12:45:36.388Z,1640
2017-04-02T12:46:30.783Z,1625
2017-04-02T12:51:02.980Z,1485
2017-04-02T12:51:56.225Z,1470
2017-04-02T12:52:46.925Z,1445
2017-04-02T12:53:40.920Z,1455
2017-04-02T12:54:45.428Z,1490
2017-04-02T12:55:35.072Z,1540
2017-04-02T12:56:23.561Z,1580
2017-04-02T12:57:12.153Z,1580
2017-04-02T12:58:01.494Z,1565
2017-04-02T12:58:50.501Z,1520
2017-04-02T12:59:38.768Z,1470
2017-04-02T13:00:27.184Z,1440
2017-04-02T13:01:16.464Z,1445
2017-04-02T13:02:08.019Z,1485
2017-04-02T13:02:57.428Z,1500
2017-04-02T13:03:45.906Z,1470
2017-04-02T13:04:34.680Z,1405
2017-04-02T13:05:23.452Z,1355
2017-04-02T13:06:11.857Z,1315
2017-04-02T13:07:53.833Z,1270
2017-04-02T13:08:41.152Z,1255
2017-04-02T13:09:30.951Z,1235
2017-04-02T13:10:19.459Z,1205
2017-04-02T13:11:20.967Z,1185
2017-04-02T13:12:09.647Z,1180
2017-04-02T13:12:58.511Z,1170
2017-04-02T13:13:46.950Z,1160
2017-04-02T13:14:35.810Z,1155
2017-04-02T13:15:26.012Z,1155
2017-04-02T13:16:14.454Z,1150
2017-04-02T13:17:04.430Z,1140
2017-04-02T13:17:54.939Z,1130
2017-04-02T13:18:43.637Z,1120
2017-04-02T13:19:33.076Z,1110
2017-04-02T13:20:26.038Z,1110
2017-04-02T13:21:15.519Z,1100
2017-04-02T13:22:02.991Z,1100
2017-04-02T13:22:52.392Z,1105
2017-04-02T13:23:42.895Z,1110
2017-04-02T13:24:32.702Z,1125
2017-04-02T13:25:22.045Z,1125
2017-04-02T13:26:13.002Z,1125
2017-04-02T13:27:03.133Z,1110
2017-04-02T13:27:53.543Z,1105
2017-04-02T13:28:43.171Z,1100
2017-04-02T13:29:35.216Z,1095
2017-04-02T13:30:24.468Z,1100
2017-04-02T13:31:14.466Z,1115
2017-04-02T13:32:03.073Z,1125
2017-04-02T13:32:51.581Z,1130
2017-04-02T13:33:40.593Z,1130
2017-04-02T13:34:29.154Z,1140
2017-04-02T13:35:19.192Z,1155
2017-04-02T13:36:07.763Z,1165
2017-04-02T13:36:56.523Z,1155
2017-04-02T13:37:50.535Z,1155
2017-04-02T13:38:42.044Z,1145
2017-04-02T13:39:30.666Z,1140
2017-04-02T13:40:19.546Z,1150
2017-04-02T13:41:08.141Z,1145
2017-04-02T13:41:57.462Z,1145
2017-04-02T13:42:47.111Z,1135
2017-04-02T13:43:35.219Z,1125
2017-04-02T13:44:24.341Z,1095
2017-04-02T13:45:12.918Z,1045
2017-04-02T13:46:01.989Z,1030
2017-04-02T13:46:45.157Z,1045
2017-04-02T13:47:25.582Z,1030
2017-04-02T13:48:06.257Z,1015
2017-04-02T13:48:47.210Z,1025
2017-04-02T13:49:28.173Z,1015
2017-04-02T13:50:11.447Z,1005
2017-04-02T13:50:52.098Z,1000
2017-04-02T13:51:35.119Z,1010
2017-04-02T13:52:15.708Z,1005
2017-04-02T13:52:56.614Z,995
2017-04-02T13:53:38.902Z,985
2017-04-02T13:54:19.444Z,975
2017-04-02T13:55:00.396Z,975
2017-04-02T13:55:40.867Z,970
2017-04-02T13:56:21.292Z,985
2017-04-02T13:57:01.706Z,1000
2017-04-02T13:57:42.320Z,1005
2017-04-02T13:58:23.837Z,1000
2017-04-02T13:59:04.032Z,990
2017-04-02T13:59:44.483Z,990
2017-04-02T14:00:27.577Z,990
2017-04-02T14:01:07.904Z,950
2017-04-02T14:01:48.311Z,910
2017-04-02T14:02:28.697Z,895
2017-04-02T14:03:09.211Z,895
2017-04-02T14:03:49.656Z,895
2017-04-02T14:04:30.009Z,890
2017-04-02T14:05:11.925Z,885
2017-04-02T14:05:52.867Z,860
2017-04-02T14:06:33.464Z,820
2017-04-02T14:07:14.019Z,795
2017-04-02T14:07:54.378Z,795
2017-04-02T14:08:34.854Z,810
2017-04-02T14:09:15.317Z,815
2017-04-02T14:09:55.743Z,830
2017-04-02T14:10:36.081Z,850
2017-04-02T14:11:16.553Z,875
2017-04-02T14:11:56.935Z,895
2017-04-02T14:12:37.653Z,900
2017-04-02T14:13:18.100Z,895
2017-04-02T14:13:59.392Z,895
2017-04-02T14:14:39.788Z,910
2017-04-02T14:15:20.190Z,915
2017-04-02T14:16:00.626Z,925
2017-04-02T14:16:41.017Z,925
2017-04-02T14:17:21.717Z,930
2017-04-02T14:18:02.740Z,950
2017-04-02T14:18:43.566Z,955
2017-04-02T14:19:23.845Z,950
2017-04-02T14:20:04.325Z,935
2017-04-02T14:20:44.754Z,920
2017-04-02T14:21:25.880Z,895
2017-04-02T14:22:07.442Z,860
2017-04-02T14:22:48.119Z,840
2017-04-02T14:23:28.562Z,815
2017-04-02T14:24:08.960Z,800
2017-04-02T14:24:49.458Z,795
2017-04-02T14:25:31.745Z,780
2017-04-02T14:26:12.171Z,760
2017-04-02T14:26:52.616Z,740
2017-04-02T14:27:33.056Z,730
2017-04-02T14:28:13.656Z,710
2017-04-02T14:28:54.037Z,685
2017-04-02T14:29:34.456Z,665
2017-04-02T14:30:14.868Z,645
2017-04-02T14:30:55.281Z,635
2017-04-02T14:31:35.680Z,630
2017-04-02T14:32:16.071Z,625
2017-04-02T14:32:56.486Z,620
2017-04-02T14:33:36.999Z,620
2017-04-02T14:34:17.389Z,625
2017-04-02T14:34:57.814Z,630
2017-04-02T14:35:38.229Z,640
2017-04-02T14:36:19.245Z,645
2017-04-02T14:36:59.639Z,655
2017-04-02T14:37:40.172Z,655
2017-04-02T14:38:20.547Z,650
2017-04-02T14:39:01.201Z,650
2017-04-02T14:39:42.253Z,645
2017-04-02T14:40:22.756Z,650
2017-04-02T14:41:03.309Z,660
2017-04-02T14:41:43.559Z,675
2017-04-02T14:42:24.621Z,690
2017-04-02T14:43:05.069Z,705
2017-04-02T14:43:45.485Z,710
2017-04-02T14:44:26.120Z,710
2017-04-02T14:45:06.528Z,710
2017-04-02T14:45:47.039Z,710
2017-04-02T14:46:27.707Z,715
2017-04-02T14:47:08.247Z,730
2017-04-02T14:47:48.663Z,740
2017-04-02T14:48:29.089Z,750
2017-04-02T14:49:09.496Z,755
2017-04-02T14:49:49.924Z,750
2017-04-02T14:50:30.327Z,745
2017-04-02T14:51:10.736Z,745
2017-04-02T14:51:51.143Z,745
2017-04-02T14:52:31.647Z,745
2017-04-02T14:53:13.878Z,745
2017-04-02T14:53:54.281Z,735
2017-04-02T14:54:34.723Z,725
2017-04-02T14:55:15.133Z,720
2017-04-02T14:55:55.593Z,700
2017-04-02T14:56:36.019Z,690
2017-04-02T14:57:16.410Z,675
2017-04-02T14:57:56.824Z,665
2017-04-02T14:58:37.238Z,660
2017-04-02T14:59:17.697Z,660
2017-04-02T14:59:58.095Z,670
2017-04-02T15:00:38.493Z,675
2017-04-02T15:01:18.946Z,685
2017-04-02T15:01:59.401Z,695
2017-04-02T15:02:39.897Z,700
2017-04-02T15:03:20.363Z,700
2017-04-02T15:04:00.868Z,705
2017-04-02T15:04:41.359Z,705
2017-04-02T15:05:24.410Z,695
2017-04-02T15:06:04.878Z,680
2017-04-02T15:06:45.279Z,660
2017-04-02T15:07:25.692Z,640
2017-04-02T15:08:06.249Z,630
2017-04-02T15:08:46.821Z,625
2017-04-02T15:09:27.101Z,620
2017-04-02T15:10:07.637Z,620
2017-04-02T15:10:48.210Z,620
2017-04-02T15:11:28.573Z,615
2017-04-02T15:12:09.050Z,600
2017-04-02T15:12:49.497Z,585
2017-04-02T15:13:29.916Z,565
2017-04-02T15:14:10.431Z,540
2017-04-02T15:14:50.839Z,515
2017-04-02T15:15:31.374Z,505
2017-04-02T15:16:11.833Z,485
2017-04-02T15:16:52.162Z,475
2017-04-02T15:17:32.581Z,460
2017-04-02T15:18:12.967Z,455
2017-04-02T15:18:53.398Z,440
2017-04-02T15:19:33.767Z,435
2017-04-02T15:20:14.209Z,430
2017-04-02T15:20:54.649Z,430
2017-04-02T15:21:35.028Z,425
2017-04-02T15:22:15.406Z,425
2017-04-02T15:22:55.859Z,420
2017-04-02T15:23:36.450Z,420
2017-04-02T15:24:16.853Z,420
2017-04-02T15:24:57.268Z,425
2017-04-02T15:25:37.711Z,430